createdAt,value
2022-11-16T00:01:57.855Z,5.30
2022-11-16T00:04:25.827Z,5.40
2022-11-16T00:06:54.170Z,5.40
2022-11-16T00:09:26.957Z,5.50
2022-11-16T00:11:57.389Z,5.60
2022-11-16T00:14:27.440Z,5.60
2022-11-16T00:16:57.054Z,5.60
2022-11-16T00:19:25.993Z,5.60
2022-11-16T00:21:54.280Z,5.70
2022-11-16T00:24:23.534Z,5.70
2022-11-16T00:26:54.049Z,5.60
2022-11-16T00:29:23.913Z,5.60
2022-11-16T00:31:52.134Z,5.60
2022-11-16T00:34:21.953Z,5.70
2022-11-16T00:36:50.229Z,5.70
2022-11-16T00:39:19.124Z,5.70
2022-11-16T00:41:47.565Z,5.60
2022-11-16T00:44:15.810Z,5.60
2022-11-16T00:46:43.871Z,5.70
2022-11-16T00:49:12.108Z,5.80
2022-11-16T00:51:41.398Z,5.80
2022-11-16T00:54:09.890Z,5.80
2022-11-16T00:56:38.590Z,5.80
2022-11-16T00:59:06.869Z,5.80
2022-11-16T01:01:35.391Z,5.80
2022-11-16T01:04:03.398Z,5.80
2022-11-16T01:06:31.378Z,5.80
2022-11-16T01:09:01.905Z,5.80
2022-11-16T01:11:47.258Z,5.80
2022-11-16T01:14:15.269Z,5.80
2022-11-16T01:16:43.254Z,5.70
2022-11-16T01:19:11.411Z,5.70
2022-11-16T01:21:39.397Z,5.70
2022-11-16T01:24:09.841Z,5.70
2022-11-16T01:26:37.826Z,5.60
2022-11-16T01:29:05.786Z,5.40
2022-11-16T01:31:33.778Z,5.40
2022-11-16T01:34:01.721Z,5.40
2022-11-16T01:36:29.792Z,5.30
2022-11-16T01:38:58.052Z,5.30
2022-11-16T01:41:27.922Z,5.30
2022-11-16T01:43:59.769Z,5.30
2022-11-16T01:46:28.936Z,5.20
2022-11-16T01:49:02.458Z,5.20
2022-11-16T01:51:30.754Z,5.30
2022-11-16T01:54:01.457Z,5.30
2022-11-16T01:56:32.485Z,5.40
2022-11-16T01:59:00.560Z,5.50
2022-11-16T02:01:28.749Z,5.50
2022-11-16T02:03:56.917Z,5.50
2022-11-16T02:06:33.796Z,5.40
2022-11-16T02:09:31.646Z,5.40
2022-11-16T02:12:12.986Z,5.40
2022-11-16T02:14:57.690Z,5.40
2022-11-16T02:17:36.327Z,5.30
2022-11-16T02:20:30.172Z,5.30
2022-11-16T02:23:17.628Z,5.20
2022-11-16T02:25:54.850Z,5.10
2022-11-16T02:28:35.146Z,4.90
2022-11-16T02:31:08.373Z,4.90
2022-11-16T02:33:40.044Z,5.00
2022-11-16T02:36:12.789Z,5.10
2022-11-16T02:38:45.509Z,4.90
2022-11-16T02:41:17.601Z,4.90
2022-11-16T02:43:49.371Z,5.00
2022-11-16T02:46:22.873Z,5.00
2022-11-16T02:48:54.197Z,5.00
2022-11-16T02:51:22.753Z,5.10
2022-11-16T02:54:01.666Z,5.10
2022-11-16T02:56:30.665Z,5.00
2022-11-16T02:59:00.137Z,5.00
2022-11-16T03:01:36.366Z,5.10
2022-11-16T03:04:09.622Z,5.20
2022-11-16T03:06:41.434Z,5.30
2022-11-16T03:09:13.001Z,5.30
2022-11-16T03:12:08.457Z,5.30
2022-11-16T03:14:42.161Z,5.30
2022-11-16T03:17:16.994Z,5.30
2022-11-16T03:19:50.043Z,5.40
2022-11-16T03:22:24.249Z,5.40
2022-11-16T03:24:52.510Z,5.30
2022-11-16T03:27:27.910Z,5.40
2022-11-16T03:30:05.565Z,5.40
2022-11-16T03:32:42.738Z,5.30
2022-11-16T03:35:15.582Z,5.20
2022-11-16T03:37:45.792Z,5.20
2022-11-16T03:40:14.988Z,5.10
2022-11-16T03:42:44.642Z,4.90
2022-11-16T03:45:14.083Z,5.00
2022-11-16T03:47:43.480Z,5.10
2022-11-16T03:50:11.722Z,5.10
2022-11-16T03:52:39.671Z,5.20
2022-11-16T03:55:08.233Z,5.10
2022-11-16T03:57:36.296Z,5.10
2022-11-16T04:00:05.078Z,4.90
2022-11-16T04:02:33.093Z,5.00
2022-11-16T04:05:19.636Z,4.90
2022-11-16T04:08:07.124Z,4.90
2022-11-16T04:10:52.742Z,4.90
2022-11-16T04:13:45.181Z,5.00
2022-11-16T04:16:30.718Z,5.00
2022-11-16T04:19:16.392Z,5.10
2022-11-16T04:22:08.216Z,5.10
2022-11-16T04:24:39.385Z,5.20
2022-11-16T04:27:27.684Z,5.20
2022-11-16T04:29:57.670Z,5.00
2022-11-16T04:32:43.689Z,5.00
2022-11-16T04:35:43.530Z,5.10
2022-11-16T04:38:12.824Z,5.10
2022-11-16T04:40:41.024Z,5.00
2022-11-16T04:43:08.951Z,5.00
2022-11-16T04:45:54.627Z,5.00
2022-11-16T04:48:22.804Z,4.90
2022-11-16T04:50:50.778Z,5.00
2022-11-16T04:53:22.392Z,5.10
2022-11-16T04:55:51.139Z,5.10
2022-11-16T04:58:19.133Z,5.20
2022-11-16T05:00:47.045Z,4.90
2022-11-16T05:03:15.016Z,4.80
2022-11-16T05:05:42.945Z,4.90
2022-11-16T05:08:10.903Z,4.90
2022-11-16T05:10:40.225Z,4.90
2022-11-16T05:13:08.213Z,5.00
2022-11-16T05:15:36.225Z,5.20
2022-11-16T05:18:04.175Z,5.20
2022-11-16T05:20:49.502Z,5.20
2022-11-16T05:23:37.325Z,5.20
2022-11-16T05:26:06.926Z,5.30
2022-11-16T05:28:35.136Z,5.20
2022-11-16T05:31:03.327Z,5.10
2022-11-16T05:33:31.248Z,5.00
2022-11-16T05:35:59.199Z,4.90
2022-11-16T05:38:27.120Z,4.90
2022-11-16T05:40:55.219Z,5.00
2022-11-16T05:43:24.686Z,5.10
2022-11-16T05:45:52.720Z,5.10
2022-11-16T05:48:20.656Z,5.20
2022-11-16T05:50:48.702Z,5.20
2022-11-16T05:53:16.677Z,5.20
2022-11-16T05:55:44.639Z,5.20
2022-11-16T05:58:12.657Z,5.20
2022-11-16T06:00:41.933Z,5.30
2022-11-16T06:03:10.250Z,5.20
2022-11-16T06:05:40.722Z,5.20
2022-11-16T06:08:08.837Z,5.30
2022-11-16T06:10:37.092Z,5.30
2022-11-16T06:13:05.053Z,5.30
2022-11-16T06:15:33.006Z,5.30
2022-11-16T06:18:02.280Z,5.30
2022-11-16T06:20:30.222Z,5.40
2022-11-16T06:22:58.217Z,5.40
2022-11-16T06:25:26.233Z,5.40
2022-11-16T06:27:54.551Z,5.50
2022-11-16T06:30:22.456Z,5.40
2022-11-16T06:32:50.415Z,5.50
2022-11-16T06:35:19.918Z,5.50
2022-11-16T06:37:47.853Z,5.60
2022-11-16T06:40:15.769Z,5.50
2022-11-16T06:42:43.901Z,5.40
2022-11-16T06:45:12.013Z,5.50
2022-11-16T06:47:39.968Z,5.30
2022-11-16T06:50:08.983Z,5.30
2022-11-16T06:52:38.303Z,5.10
2022-11-16T06:55:07.146Z,5.10
2022-11-16T06:57:36.101Z,5.10
2022-11-16T07:00:05.152Z,5.20
2022-11-16T07:02:33.076Z,5.20
2022-11-16T07:05:03.824Z,5.10
2022-11-16T07:07:32.177Z,5.10
2022-11-16T07:10:01.572Z,5.30
2022-11-16T07:12:29.509Z,5.40
2022-11-16T07:14:57.465Z,5.50
2022-11-16T07:17:25.466Z,5.50
2022-11-16T07:19:53.556Z,5.50
2022-11-16T07:22:21.477Z,5.50
2022-11-16T07:24:49.386Z,5.40
2022-11-16T07:27:18.702Z,5.40
2022-11-16T07:29:46.708Z,5.60
2022-11-16T07:32:14.693Z,5.60
2022-11-16T07:34:42.614Z,5.50
2022-11-16T07:37:10.691Z,5.50
2022-11-16T07:39:38.644Z,5.50
2022-11-16T07:42:11.427Z,5.60
2022-11-16T07:44:40.853Z,5.60
2022-11-16T07:47:08.769Z,5.50
2022-11-16T07:49:36.802Z,5.50
2022-11-16T07:52:04.763Z,5.60
2022-11-16T07:54:32.701Z,5.60
2022-11-16T07:57:00.620Z,5.60
2022-11-16T07:59:28.765Z,5.50
2022-11-16T08:01:59.255Z,5.50
2022-11-16T08:04:27.479Z,5.70
2022-11-16T08:06:55.509Z,5.70
2022-11-16T08:09:23.547Z,5.70
2022-11-16T08:11:51.657Z,5.70
2022-11-16T08:14:19.670Z,5.70
2022-11-16T08:16:47.620Z,5.70
2022-11-16T08:19:17.052Z,5.80
2022-11-16T08:21:45.699Z,5.80
2022-11-16T08:24:13.631Z,5.80
2022-11-16T08:26:41.545Z,5.60
2022-11-16T08:29:09.457Z,5.60
2022-11-16T08:31:38.115Z,5.70
2022-11-16T08:34:06.070Z,5.80
2022-11-16T08:36:35.537Z,5.80
2022-11-16T08:39:03.496Z,5.90
2022-11-16T08:41:31.851Z,5.90
2022-11-16T08:44:00.275Z,5.80
2022-11-16T08:46:28.614Z,5.90
2022-11-16T08:48:57.656Z,5.90
2022-11-16T08:51:26.479Z,5.80
2022-11-16T08:53:58.934Z,5.80
2022-11-16T08:56:27.318Z,5.90
2022-11-16T08:58:58.864Z,5.90
2022-11-16T09:01:29.191Z,6.00
2022-11-16T09:03:57.698Z,6.00
2022-11-16T09:06:27.618Z,6.00
2022-11-16T09:08:57.540Z,6.10
2022-11-16T09:11:27.151Z,6.00
2022-11-16T09:13:56.381Z,5.90
2022-11-16T09:16:26.590Z,5.90
2022-11-16T09:18:55.697Z,6.00
2022-11-16T09:21:25.450Z,6.00
2022-11-16T09:23:54.760Z,6.10
2022-11-16T09:26:24.813Z,5.90
2022-11-16T09:28:56.747Z,6.00
2022-11-16T09:31:24.847Z,6.00
2022-11-16T09:33:52.732Z,6.20
2022-11-16T09:36:21.390Z,6.30
2022-11-16T09:41:53.282Z,6.30
2022-11-16T09:44:40.913Z,6.20
2022-11-16T09:47:15.894Z,6.30
2022-11-16T09:49:48.320Z,6.30
2022-11-16T09:52:26.049Z,6.20
2022-11-16T09:54:55.848Z,6.20
2022-11-16T09:57:30.197Z,6.20
2022-11-16T10:00:03.155Z,6.20
2022-11-16T10:02:36.885Z,5.90
2022-11-16T10:05:14.541Z,5.80
2022-11-16T10:07:45.969Z,5.90
2022-11-16T10:10:15.957Z,6.00
2022-11-16T10:12:50.001Z,6.00
2022-11-16T10:15:35.500Z,6.00
2022-11-16T10:18:13.524Z,5.90
2022-11-16T10:21:07.273Z,6.10
2022-11-16T10:23:49.780Z,6.20
2022-11-16T10:26:28.281Z,6.20
2022-11-16T10:29:10.634Z,6.30
2022-11-16T10:31:55.862Z,6.10
2022-11-16T10:34:29.490Z,6.10
2022-11-16T10:37:03.271Z,6.20
2022-11-16T10:39:33.621Z,6.30
2022-11-16T10:42:07.685Z,6.30
2022-11-16T10:44:41.336Z,6.40
2022-11-16T10:47:17.840Z,6.20
2022-11-16T10:49:54.501Z,6.30
2022-11-16T10:52:23.532Z,6.30
2022-11-16T10:54:51.637Z,6.30
2022-11-16T10:57:19.735Z,6.30
2022-11-16T10:59:53.173Z,6.20
2022-11-16T11:02:35.644Z,6.10
2022-11-16T11:05:08.068Z,6.10
2022-11-16T11:07:39.802Z,6.20
2022-11-16T11:10:25.227Z,6.20
2022-11-16T11:13:18.186Z,6.30
2022-11-16T11:15:48.764Z,6.20
2022-11-16T11:18:27.651Z,6.20
2022-11-16T11:21:07.877Z,6.10
2022-11-16T11:23:43.872Z,6.20
2022-11-16T11:26:37.092Z,6.20
2022-11-16T11:29:17.967Z,6.30
2022-11-16T11:31:51.276Z,6.40
2022-11-16T11:34:22.589Z,6.50
2022-11-16T11:36:54.801Z,6.50
2022-11-16T11:39:33.961Z,6.40
2022-11-16T11:42:07.571Z,6.50
2022-11-16T11:44:49.190Z,6.50
2022-11-16T11:50:22.850Z,6.50
2022-11-16T11:53:01.479Z,6.60
2022-11-16T11:55:29.902Z,6.50
2022-11-16T11:57:59.882Z,6.50
2022-11-16T12:00:28.147Z,6.50
2022-11-16T12:03:34.433Z,6.50
2022-11-16T12:06:14.681Z,6.50
2022-11-16T12:09:01.917Z,6.40
2022-11-16T12:11:38.856Z,6.50
2022-11-16T12:14:27.000Z,6.50
2022-11-16T12:17:03.249Z,6.40
2022-11-16T12:19:49.702Z,6.20
2022-11-16T12:22:30.933Z,6.40
2022-11-16T12:25:16.950Z,6.30
2022-11-16T12:27:53.036Z,6.30
2022-11-16T12:30:23.237Z,6.30
2022-11-16T12:33:21.514Z,6.20
2022-11-16T12:35:57.929Z,5.90
2022-11-16T12:38:48.425Z,6.10
2022-11-16T12:41:45.159Z,6.00
2022-11-16T12:44:19.443Z,5.80
2022-11-16T12:47:00.103Z,6.10
2022-11-16T12:49:53.614Z,6.00
2022-11-16T12:52:47.366Z,6.20
2022-11-16T12:55:26.845Z,6.40
2022-11-16T12:58:08.661Z,6.40
2022-11-16T13:00:49.037Z,6.40
2022-11-16T13:03:22.204Z,6.40
2022-11-16T13:05:55.583Z,6.60
2022-11-16T13:08:36.470Z,6.40
2022-11-16T13:11:12.714Z,6.50
2022-11-16T13:13:45.745Z,6.50
2022-11-16T13:16:17.957Z,6.30
2022-11-16T13:18:46.077Z,6.50
2022-11-16T13:21:23.023Z,6.60
2022-11-16T13:24:03.868Z,6.60
2022-11-16T13:26:37.961Z,6.50
2022-11-16T13:29:15.706Z,6.60
2022-11-16T13:31:50.274Z,6.50
2022-11-16T13:34:24.408Z,6.30
2022-11-16T13:36:52.748Z,6.00
2022-11-16T13:39:57.394Z,6.00
2022-11-16T13:42:26.354Z,5.70
2022-11-16T13:44:54.917Z,5.90
2022-11-16T13:47:25.673Z,5.90
2022-11-16T13:49:56.712Z,6.00
2022-11-16T13:52:35.457Z,6.00
2022-11-16T13:55:26.503Z,5.90
2022-11-16T13:57:57.150Z,5.90
2022-11-16T14:00:30.848Z,5.90
2022-11-16T14:03:31.549Z,6.00
2022-11-16T14:05:59.951Z,6.10
2022-11-16T14:08:51.581Z,6.10
2022-11-16T14:11:33.073Z,6.00
2022-11-16T14:14:02.178Z,6.00
2022-11-16T14:16:46.751Z,5.70
2022-11-16T14:19:57.342Z,5.80
2022-11-16T14:22:39.708Z,5.90
2022-11-16T14:25:23.666Z,5.80
2022-11-16T14:28:00.962Z,5.70
2022-11-16T14:30:33.522Z,5.70
2022-11-16T14:33:01.605Z,5.70
2022-11-16T14:35:33.763Z,5.80
2022-11-16T14:38:04.402Z,5.80
2022-11-16T14:40:36.900Z,5.80
2022-11-16T14:43:16.394Z,5.70
2022-11-16T14:45:50.302Z,5.60
2022-11-16T14:48:20.357Z,5.60
2022-11-16T14:51:01.233Z,5.50
2022-11-16T14:53:30.312Z,5.60
2022-11-16T14:56:08.782Z,5.70
2022-11-16T14:58:38.457Z,5.70
2022-11-16T15:01:09.142Z,5.80
2022-11-16T15:03:42.303Z,5.90
2022-11-16T15:06:10.544Z,5.90
2022-11-16T15:08:43.400Z,5.90
2022-11-16T15:11:21.891Z,5.90
2022-11-16T15:13:51.855Z,5.70
2022-11-16T15:16:21.197Z,5.60
2022-11-16T15:19:00.459Z,5.40
2022-11-16T15:21:30.006Z,5.60
2022-11-16T15:26:46.022Z,5.70
2022-11-16T15:29:18.848Z,5.60
2022-11-16T15:31:48.110Z,5.70
2022-11-16T15:34:18.476Z,5.70
2022-11-16T15:36:47.353Z,5.50
2022-11-16T15:39:18.676Z,5.50
2022-11-16T15:41:47.058Z,5.50
2022-11-16T15:44:18.742Z,5.50
2022-11-16T15:46:49.749Z,5.60
2022-11-16T15:49:28.457Z,5.50
2022-11-16T15:51:57.449Z,5.40
2022-11-16T15:54:27.519Z,5.30
2022-11-16T15:56:57.540Z,5.40
2022-11-16T15:59:30.522Z,5.50
2022-11-16T16:01:58.830Z,5.40
2022-11-16T16:04:27.508Z,5.40
2022-11-16T16:06:58.055Z,5.60
2022-11-16T16:09:29.028Z,5.60
2022-11-16T16:11:58.445Z,5.40
2022-11-16T16:14:29.754Z,5.30
2022-11-16T16:16:59.647Z,5.40
2022-11-16T16:19:35.613Z,5.50
2022-11-16T16:22:05.522Z,5.50
2022-11-16T16:24:40.924Z,5.50
2022-11-16T16:27:13.597Z,5.60
2022-11-16T16:29:43.670Z,5.60
2022-11-16T16:32:22.018Z,5.40
2022-11-16T16:34:50.709Z,5.50
2022-11-16T16:37:19.307Z,5.50
2022-11-16T16:39:47.306Z,5.60
2022-11-16T16:42:16.697Z,5.50
2022-11-16T16:44:47.137Z,5.50
2022-11-16T16:47:16.072Z,5.60
2022-11-16T16:49:44.224Z,5.60
2022-11-16T16:52:13.666Z,5.50
2022-11-16T16:54:42.150Z,5.40
2022-11-16T16:57:14.270Z,5.60
2022-11-16T16:59:42.225Z,5.50
2022-11-16T17:02:12.714Z,5.50
2022-11-16T17:04:40.690Z,5.60
2022-11-16T17:07:08.684Z,5.60
2022-11-16T17:09:36.718Z,5.60
2022-11-16T17:12:04.856Z,5.70
2022-11-16T17:14:32.795Z,5.70
2022-11-16T17:17:00.782Z,5.70
2022-11-16T17:19:30.636Z,5.70
2022-11-16T17:21:59.304Z,5.70
2022-11-16T17:24:27.262Z,5.70
2022-11-16T17:26:55.240Z,5.60
2022-11-16T17:29:23.293Z,5.60
2022-11-16T17:31:51.585Z,5.60
2022-11-16T17:34:19.549Z,5.70
2022-11-16T17:36:49.192Z,5.70
2022-11-16T17:39:19.116Z,5.50
2022-11-16T17:41:47.064Z,5.50
2022-11-16T17:44:21.251Z,5.60
2022-11-16T17:46:49.944Z,5.50
2022-11-16T17:49:17.864Z,5.60
2022-11-16T17:51:45.782Z,5.50
2022-11-16T17:54:15.075Z,5.60
2022-11-16T17:56:43.171Z,5.70
2022-11-16T17:59:11.124Z,5.80
2022-11-16T18:01:39.338Z,5.80
2022-11-16T18:04:07.451Z,5.60
2022-11-16T18:06:35.597Z,5.60
2022-11-16T18:09:03.690Z,5.60
2022-11-16T18:11:33.391Z,5.60
2022-11-16T18:14:04.695Z,5.60
2022-11-16T18:16:34.260Z,5.60
2022-11-16T18:19:04.179Z,5.60
2022-11-16T18:21:34.086Z,5.70
2022-11-16T18:24:02.765Z,5.70
2022-11-16T18:26:32.722Z,5.50
2022-11-16T18:29:00.688Z,5.70
2022-11-16T18:31:29.705Z,5.50
2022-11-16T18:33:57.700Z,5.60
2022-11-16T18:36:25.678Z,5.60
2022-11-16T18:38:53.693Z,5.70
2022-11-16T18:41:24.370Z,5.60
2022-11-16T18:43:55.071Z,5.70
2022-11-16T18:46:25.413Z,5.80
2022-11-16T18:48:53.420Z,5.80
2022-11-16T18:51:22.574Z,5.80
2022-11-16T18:53:50.918Z,5.80
2022-11-16T18:56:19.540Z,5.80
2022-11-16T18:58:52.428Z,5.80
2022-11-16T19:01:24.592Z,5.80
2022-11-16T19:03:53.179Z,5.70
2022-11-16T19:06:21.545Z,5.70
2022-11-16T19:08:56.215Z,5.60
2022-11-16T19:11:25.437Z,5.70
2022-11-16T19:13:55.064Z,5.70
2022-11-16T19:16:25.436Z,5.80
2022-11-16T19:18:53.937Z,5.80
2022-11-16T19:21:23.358Z,5.50
2022-11-16T19:23:52.980Z,5.40
2022-11-16T19:26:23.959Z,5.40
2022-11-16T19:28:52.550Z,5.50
2022-11-16T19:31:22.411Z,5.60
2022-11-16T19:33:54.681Z,5.70
2022-11-16T19:36:22.886Z,5.80
2022-11-16T19:38:51.226Z,5.80
2022-11-16T19:41:21.234Z,5.80
2022-11-16T19:43:49.504Z,5.90
2022-11-16T19:46:18.393Z,5.90
2022-11-16T19:48:47.165Z,5.80
2022-11-16T19:51:18.220Z,5.90
2022-11-16T19:53:46.173Z,5.80
2022-11-16T19:56:16.530Z,5.70
2022-11-16T19:58:44.830Z,5.80
2022-11-16T20:01:14.596Z,5.70
2022-11-16T20:03:42.914Z,5.80
2022-11-16T20:06:12.979Z,5.70
2022-11-16T20:08:44.138Z,5.80
2022-11-16T20:11:13.654Z,5.80
2022-11-16T20:13:42.013Z,5.70
2022-11-16T20:16:11.497Z,5.70
2022-11-16T20:18:40.107Z,5.80
2022-11-16T20:21:09.156Z,5.80
2022-11-16T20:23:37.510Z,5.90
2022-11-16T20:26:08.637Z,5.80
2022-11-16T20:28:37.172Z,5.70
2022-11-16T20:31:08.429Z,5.60
2022-11-16T20:33:36.952Z,5.60
2022-11-16T20:36:07.576Z,5.80
2022-11-16T20:38:36.100Z,5.70
2022-11-16T20:41:13.592Z,5.80
2022-11-16T20:43:43.460Z,5.80
2022-11-16T20:46:13.018Z,5.90
2022-11-16T20:48:42.300Z,5.90
2022-11-16T20:51:11.934Z,5.90
2022-11-16T20:53:40.192Z,5.90
2022-11-16T20:56:08.682Z,5.90
2022-11-16T20:58:38.770Z,5.90
2022-11-16T21:01:08.819Z,6.00
2022-11-16T21:03:37.174Z,5.80
2022-11-16T21:06:08.479Z,5.90
2022-11-16T21:08:37.068Z,5.80
2022-11-16T21:11:11.387Z,5.80
2022-11-16T21:13:58.474Z,5.80
2022-11-16T21:16:27.344Z,5.90
2022-11-16T21:18:55.546Z,5.90
2022-11-16T21:21:25.256Z,5.80
2022-11-16T21:23:54.067Z,5.80
2022-11-16T21:26:23.466Z,5.80
2022-11-16T21:28:52.998Z,5.90
2022-11-16T21:31:25.316Z,5.80
2022-11-16T21:33:53.826Z,5.70
2022-11-16T21:36:24.947Z,5.70
2022-11-16T21:38:53.673Z,5.70
2022-11-16T21:41:23.180Z,5.80
2022-11-16T21:43:52.685Z,5.80
2022-11-16T21:46:22.366Z,5.70
2022-11-16T21:48:51.166Z,5.60
2022-11-16T21:51:20.774Z,5.60
2022-11-16T21:53:48.901Z,5.50
2022-11-16T21:56:20.036Z,5.50
2022-11-16T21:58:49.923Z,5.60
2022-11-16T22:01:20.085Z,5.50
2022-11-16T22:04:08.026Z,5.50
2022-11-16T22:07:05.266Z,5.80
2022-11-16T22:09:33.220Z,5.80
2022-11-16T22:12:05.280Z,5.80
2022-11-16T22:14:33.451Z,5.80
2022-11-16T22:17:03.771Z,5.70
2022-11-16T22:19:31.738Z,5.80
2022-11-16T22:21:59.913Z,5.90
2022-11-16T22:24:27.953Z,5.90
2022-11-16T22:26:55.923Z,5.80
2022-11-16T22:29:23.874Z,5.70
2022-11-16T22:31:51.810Z,5.60
2022-11-16T22:34:21.146Z,5.70
2022-11-16T22:36:49.097Z,5.70
2022-11-16T22:39:17.034Z,5.70
2022-11-16T22:41:45.010Z,5.60
2022-11-16T22:44:13.000Z,5.50
2022-11-16T22:46:40.975Z,5.60
2022-11-16T22:49:09.006Z,5.60
2022-11-16T22:51:39.337Z,5.40
2022-11-16T22:54:07.842Z,5.50
2022-11-16T22:56:35.861Z,5.30
2022-11-16T22:59:05.337Z,5.30
2022-11-16T23:01:33.561Z,5.50
2022-11-16T23:04:01.665Z,5.50
2022-11-16T23:06:30.024Z,5.50
2022-11-16T23:08:59.745Z,5.20
2022-11-16T23:11:45.951Z,5.20
2022-11-16T23:14:32.976Z,4.90
2022-11-16T23:17:01.201Z,5.10
2022-11-16T23:19:46.798Z,5.10
2022-11-16T23:22:34.608Z,5.10
2022-11-16T23:25:21.900Z,5.00
2022-11-16T23:27:56.448Z,4.90
2022-11-16T23:30:25.198Z,5.00
2022-11-16T23:32:53.415Z,4.80
2022-11-16T23:35:21.806Z,4.90
2022-11-16T23:37:54.156Z,5.20
2022-11-16T23:40:25.188Z,5.30
2022-11-16T23:43:10.694Z,5.40
2022-11-16T23:45:38.853Z,5.20
2022-11-16T23:48:07.674Z,5.20
2022-11-16T23:50:35.997Z,5.40
2022-11-16T23:53:04.481Z,5.30
2022-11-16T23:55:34.910Z,5.40
2022-11-16T23:58:02.829Z,5.50
